Flight Track Log - Related Links

Times and Time Zones

All times are in EDT time to prevent confusion due to time zone crossing. See the DAL1981 flight status page for this flight to view local times or setup timezone preferences in your user account.

Time Position Orientation Groundspeed Altitude Reporting Facility
EDT Latitude Longitude Course Direction KTS MPH feet Rate Location/Type
Mon 03:54:48 PM 38.7167 -121.5833 78° East 140 161 1,400  Level Northern Cal TRACON
Mon 03:55:42 PM 38.7500 -121.5500 38° Northeast 204 235 2,000 1,053 Climbing Northern Cal TRACON
Mon 03:56:42 PM 38.7667 -121.4500 78° East 271 312 3,400 1,850 Climbing Northern Cal TRACON
Mon 03:57:00 PM 38.4928 -121.2841 80° East  Level FlightAware Approximate
Mon 03:57:42 PM 38.7667 -121.3667 90° East 291 335 5,700  Level Northern Cal TRACON
Mon 03:58:00 PM 38.5262 -121.1357 76° East  Level FlightAware Approximate
Mon 03:58:42 PM 38.7667 -121.2500 90° East 301 346 7,600  Level Northern Cal TRACON
Mon 03:59:00 PM 38.5553 -120.9849 78° East  Level FlightAware Approximate
Mon 03:59:42 PM 38.7667 -121.1500 90° East 309 356 10,000  Level Northern Cal TRACON
Mon 04:00:00 PM 38.5807 -120.8330 78° East  Level FlightAware Approximate
Mon 04:00:29 PM 38.7572 -121.0783 100° East 307 353 10,700  Level Oakland Center
Mon 04:01:30 PM 38.7514 -120.9514 93° East 336 387 11,700 1,574 Climbing Oakland Center
Mon 04:02:31 PM 38.7439 -120.7869 93° East 369 425 13,900 1,951 Climbing Oakland Center
Mon 04:03:33 PM 38.7381 -120.6478 93° East 381 438 15,700 1,561 Climbing Oakland Center
Mon 04:04:34 PM 38.7319 -120.5042 93° East 395 455 17,100 1,426 Climbing Oakland Center
Mon 04:05:35 PM 38.7256 -120.3547 93° East 418 481 18,600 1,512 Climbing Oakland Center
Mon 04:06:37 PM 38.7250 -120.2025 90° East 433 498 20,200 1,366 Climbing Oakland Center
Mon 04:07:38 PM 38.8106 -120.0858 47° Northeast 459 528 21,400 1,317 Climbing Oakland Center
Mon 04:08:40 PM 38.9075 -119.9772 41° Northeast 465 535 22,900 1,317 Climbing Oakland Center
Mon 04:09:41 PM 39.0067 -119.8656 41° Northeast 468 539 24,100 984 Climbing Oakland Center
Mon 04:10:42 PM 39.0894 -119.7339 51° Northeast 478 550 24,900 878 Climbing Oakland Center
Mon 04:11:44 PM 39.1675 -119.5944 54° Northeast 480 552 25,900 976 Climbing Oakland Center
Mon 04:12:45 PM 39.2619 -119.4267 54° Northeast 482 555 26,900 878 Climbing Oakland Center
Mon 04:13:47 PM 39.3428 -119.2836 54° Northeast 489 563 27,700 976 Climbing Oakland Center
Mon 04:14:48 PM 39.4225 -119.1408 54° Northeast 487 560 28,900 984 Climbing Oakland Center
Mon 04:15:49 PM 39.5069 -119.0033 51° Northeast 485 558 29,700 732 Climbing Oakland Center
Mon 04:16:51 PM 39.6297 -118.9139 29° Northeast 501 577 30,400 780 Climbing Oakland Center
Mon 04:17:52 PM 39.7522 -118.8297 28° Northeast 495 570 31,300 927 Climbing Oakland Center
Mon 04:18:54 PM 39.8750 -118.7464 28° Northeast 494 568 32,300 976 Climbing Oakland Center
Mon 04:19:55 PM 39.9956 -118.6656 27° Northeast 488 562 33,300 836 Climbing Oakland Center
Mon 04:20:56 PM 40.1025 -118.5639 36° Northeast 477 549 34,000 683 Climbing Oakland Center
Mon 04:21:58 PM 40.1694 -118.4158 59° Northeast 475 547 34,700 465 Climbing Oakland Center
Mon 04:23:05 PM 40.2228 -118.2211 70° East 473 544 35,000 148 Climbing Salt Lake Center
Mon 04:24:00 PM 40.2583 -118.0925 70° East 469 540 35,000  Level Oakland Center
Mon 04:25:02 PM 40.3075 -117.9131 70° East 472 543 35,000  Level Oakland Center
Mon 04:26:03 PM 40.3478 -117.7586 71° East 469 540 35,000  Level Oakland Center
Mon 04:27:04 PM 40.3961 -117.5786 71° East 468 539 35,000  Level Oakland Center
Mon 04:28:06 PM 40.4378 -117.4256 70° East 465 535 35,000  Level Oakland Center
Mon 04:29:16 PM 40.4853 -117.2450 71° East 464 534 35,000  Level Salt Lake Center
Mon 04:30:18 PM 40.5339 -117.0639 70° East 467 537 35,000  Level Salt Lake Center
Mon 04:31:20 PM 40.5764 -116.9058 70° East 470 541 35,000  Level Salt Lake Center
Mon 04:32:22 PM 40.6356 -116.7575 62° Northeast 470 541 35,000  Level Salt Lake Center
Mon 04:33:24 PM 40.7008 -116.5861 63° Northeast 467 537 35,000  Level Salt Lake Center
Mon 04:34:25 PM 40.7572 -116.4394 63° Northeast 467 537 35,000  Level Salt Lake Center
Mon 04:35:27 PM 40.8236 -116.2689 63° Northeast 467 537 35,000  Level Salt Lake Center
Mon 04:36:29 PM 40.8814 -116.1217 63° Northeast 470 541 35,000  Level Salt Lake Center
Mon 04:37:31 PM 40.9378 -115.9733 63° Northeast 469 540 35,000  Level Salt Lake Center
Mon 04:38:32 PM 41.0019 -115.8025 63° Northeast 467 537 35,000  Level Salt Lake Center
Mon 04:39:34 PM 41.0575 -115.6558 63° Northeast 465 535 35,000  Level Salt Lake Center
Mon 04:40:36 PM 41.1208 -115.4850 64° Northeast 464 534 35,000  Level Salt Lake Center
Mon 04:41:38 PM 41.1756 -115.3381 64° Northeast 462 532 35,000  Level Salt Lake Center
Mon 04:42:39 PM 41.2389 -115.1667 64° Northeast 463 533 35,000  Level Salt Lake Center
Mon 04:43:41 PM 41.2925 -115.0211 64° Northeast 461 531 35,000  Level Salt Lake Center
Mon 04:44:43 PM 41.3464 -114.8747 64° Northeast 461 531 35,000  Level Salt Lake Center
Mon 04:45:44 PM 41.4042 -114.7175 64° Northeast 462 532 35,000  Level Salt Lake Center
Mon 04:46:46 PM 41.4606 -114.5631 64° Northeast 463 533 35,000  Level Salt Lake Center
Mon 04:47:48 PM 41.5272 -114.3767 64° Northeast 463 533 35,000  Level Salt Lake Center
Mon 04:48:49 PM 41.5850 -114.2192 64° Northeast 470 541 35,000 49 Level Salt Lake Center
Mon 04:49:51 PM 41.6425 -114.0608 64° Northeast 474 545 35,100  Climbing Salt Lake Center
Mon 04:50:53 PM 41.6978 -113.9031 65° Northeast 470 541 35,000 -49 Descending Salt Lake Center
Mon 04:51:54 PM 41.7422 -113.7406 70° East 467 537 35,000  Level Salt Lake Center
Mon 04:52:56 PM 41.7811 -113.5769 72° East 464 534 35,000  Level Salt Lake Center
Mon 04:53:58 PM 41.8211 -113.4133 72° East 462 532 35,000  Level Salt Lake Center
Mon 04:54:59 PM 41.8594 -113.2508 72° East 457 526 35,000  Level Salt Lake Center
Mon 04:56:01 PM 41.9075 -113.0528 72° East 464 534 35,000  Level Salt Lake Center
Mon 04:57:03 PM 41.9461 -112.8872 73° East 464 534 35,000  Level Salt Lake Center
Mon 04:59:06 PM 42.0239 -112.5544 72° East 467 537 35,000  Level Salt Lake Center
Mon 05:00:08 PM 42.0619 -112.3886 73° East 465 535 35,000  Level Salt Lake Center
Mon 05:01:09 PM 42.1006 -112.2225 73° East 464 534 35,000  Level Salt Lake Center
Mon 05:02:11 PM 42.1386 -112.0553 73° East 466 536 35,000  Level Salt Lake Center
Mon 05:04:15 PM 42.2217 -111.6903 73° East 462 532 35,000  Level Salt Lake Center
Mon 05:05:16 PM 42.2578 -111.5231 74° East 463 533 35,000  Level Salt Lake Center
Mon 05:06:18 PM 42.2953 -111.3561 73° East 465 535 35,000  Level Salt Lake Center
Mon 05:07:20 PM 42.3325 -111.1892 73° East 465 535 35,000  Level Salt Lake Center
Mon 05:08:22 PM 42.3686 -111.0200 74° East 466 536 35,000  Level Salt Lake Center
Mon 05:09:23 PM 42.4061 -110.8456 74° East 469 540 35,000  Level Salt Lake Center
Mon 05:10:25 PM 42.4472 -110.6553 74° East 471 542 35,000  Level Salt Lake Center
Mon 05:11:27 PM 42.4819 -110.4931 74° East 469 540 35,000  Level Salt Lake Center
Mon 05:12:28 PM 42.5164 -110.3289 74° East 471 542 35,000  Level Salt Lake Center
Mon 05:13:30 PM 42.5558 -110.1394 74° East 469 540 35,000  Level Salt Lake Center
Mon 05:14:32 PM 42.5892 -109.9772 74° East 468 539 35,000  Level Salt Lake Center
Mon 05:15:34 PM 42.6286 -109.7875 74° East 468 539 35,000  Level Salt Lake Center
Mon 05:16:36 PM 42.6619 -109.6244 74° East 468 539 35,000  Level Salt Lake Center
Mon 05:17:38 PM 42.7003 -109.4347 75° East 466 536 35,000  Level Salt Lake Center
Mon 05:18:39 PM 42.7331 -109.2725 75° East 465 535 35,000  Level Salt Lake Center
Mon 05:19:41 PM 42.7650 -109.1108 75° East 464 534 35,000  Level Salt Lake Center
Mon 05:20:43 PM 42.8028 -108.9231 75° East 461 531 35,000  Level Salt Lake Center
Mon 05:21:45 PM 42.8342 -108.7606 75° East 464 534 35,000  Level Salt Lake Center
Mon 05:22:47 PM 42.8708 -108.5722 75° East 461 531 35,000  Level Salt Lake Center
Mon 05:23:49 PM 42.9008 -108.4117 76° East 458 527 35,000  Level Salt Lake Center
Mon 05:24:51 PM 42.9364 -108.2219 76° East 462 532 35,000  Level Salt Lake Center
Mon 05:25:53 PM 42.9675 -108.0597 75° East 462 532 35,000  Level Salt Lake Center
Mon 05:26:55 PM 43.0042 -107.8719 75° East 459 528 35,000  Level Salt Lake Center
Mon 05:27:57 PM 43.0331 -107.7097 76° East 459 528 35,000  Level Salt Lake Center
Mon 05:28:59 PM 43.0675 -107.5217 76° East 457 526 35,000  Level Salt Lake Center
Mon 05:30:01 PM 43.0964 -107.3611 76° East 455 524 35,000  Level Salt Lake Center
Mon 05:31:03 PM 43.1283 -107.1814 76° East 453 521 35,000  Level Salt Lake Center
Mon 05:32:05 PM 43.1581 -107.0217 76° East 453 521 35,000  Level Salt Lake Center
Mon 05:33:06 PM 43.1897 -106.8344 77° East 452 520 35,000  Level Salt Lake Center
Mon 05:33:56 PM 43.2133 -106.6994 76° East 453 521 35,000  Level Denver Center
Mon 05:34:57 PM 43.2414 -106.5378 77° East 455 524 35,000  Level Denver Center
Mon 05:35:59 PM 43.2728 -106.3503 77° East 453 521 35,000  Level Denver Center
Mon 05:37:01 PM 43.3000 -106.1878 77° East 455 524 35,000  Level Denver Center
Mon 05:38:03 PM 43.3325 -105.9989 77° East 455 524 35,000  Level Denver Center
Mon 05:39:05 PM 43.3589 -105.8358 77° East 456 525 35,000  Level Denver Center
Mon 05:40:07 PM 43.3858 -105.6756 77° East 453 521 35,000  Level Denver Center
Mon 05:41:09 PM 43.4156 -105.4872 78° East 451 519 35,000  Level Denver Center
Mon 05:42:11 PM 43.4417 -105.3256 77° East 451 519 35,000  Level Denver Center
Mon 05:43:13 PM 43.4725 -105.1372 77° East 451 519 35,000  Level Denver Center
Mon 05:44:15 PM 43.4975 -104.9767 78° East 450 518 35,000  Level Denver Center
Mon 05:45:17 PM 43.5272 -104.7892 78° East 448 516 35,000  Level Denver Center
Mon 05:46:19 PM 43.5525 -104.6275 78° East 448 516 35,000  Level Denver Center
Mon 05:47:21 PM 43.5761 -104.4661 79° East 449 517 35,000  Level Denver Center
Mon 05:48:22 PM 43.6050 -104.2778 78° East 449 517 35,000  Level Denver Center
Mon 05:49:24 PM 43.6292 -104.1197 78° East 445 512 35,000  Level Denver Center
Mon 05:50:26 PM 43.6578 -103.9319 78° East 445 512 35,000  Level Denver Center
Mon 05:51:28 PM 43.6806 -103.7697 79° East 448 516 35,000  Level Denver Center
Mon 05:52:30 PM 43.7089 -103.5822 78° East 448 516 35,000  Level Denver Center
Mon 05:53:32 PM 43.7306 -103.4203 79° East 447 514 35,000  Level Denver Center
Mon 05:54:34 PM 43.7586 -103.2319 78° East 448 516 35,000  Level Denver Center
Mon 05:55:36 PM 43.7806 -103.0692 79° East 449 517 35,000  Level Denver Center
Mon 05:56:37 PM 43.8022 -102.9069 79° East 450 518 35,000  Level Denver Center
Mon 05:57:39 PM 43.8278 -102.7197 79° East 445 512 35,000  Level Denver Center
Mon 05:58:41 PM 43.8494 -102.5575 79° East 447 514 35,000  Level Denver Center
Mon 05:59:43 PM 43.8733 -102.3692 80° East 444 511 35,000  Level Denver Center
Mon 06:00:45 PM 43.8914 -102.2106 81° East 447 514 35,000  Level Denver Center
Mon 06:01:47 PM 43.9122 -102.0406 80° East 449 517 35,000  Level Denver Center
Mon 06:02:48 PM 43.9367 -101.8367 80° East 448 516 35,000  Level Denver Center
Mon 06:03:50 PM 43.9647 -101.6725 77° East 443 510 35,000  Level Denver Center
Mon 06:04:52 PM 43.9850 -101.5039 80° East 445 512 35,000  Level Denver Center
Mon 06:05:57 PM 44.0036 -101.3319 81° East 446 513 35,000  Level Minneapolis Center
Mon 06:07:00 PM 44.0244 -101.1642 80° East 445 512 35,000  Level Minneapolis Center
Mon 06:08:02 PM 44.0503 -100.9606 80° East 445 512 35,000  Level Minneapolis Center
Mon 06:09:04 PM 44.0714 -100.7928 80° East 445 512 35,000  Level Minneapolis Center
Mon 06:10:06 PM 44.0917 -100.6203 81° East 450 518 35,000  Level Minneapolis Center
Mon 06:11:08 PM 44.1108 -100.4483 81° East 453 521 35,000  Level Minneapolis Center
Mon 06:12:10 PM 44.1311 -100.2764 81° East 454 522 35,000  Level Minneapolis Center
Mon 06:13:12 PM 44.1533 -100.0700 81° East 453 521 35,000  Level Minneapolis Center
Mon 06:14:14 PM 44.1733 -99.8978 81° East 453 521 35,000  Level Minneapolis Center
Mon 06:15:16 PM 44.1928 -99.7228 81° East 458 527 35,000  Level Minneapolis Center
Mon 06:16:18 PM 44.2111 -99.5492 82° East 457 526 35,000  Level Minneapolis Center
Mon 06:17:20 PM 44.2269 -99.4106 81° East 456 525 35,000  Level Minneapolis Center
Mon 06:18:22 PM 44.2489 -99.2044 81° East 450 518 35,000  Level Minneapolis Center
Mon 06:19:24 PM 44.2667 -99.0322 82° East 451 519 35,000  Level Minneapolis Center
Mon 06:20:26 PM 44.2869 -98.8264 82° East 450 518 35,000  Level Minneapolis Center
Mon 06:21:28 PM 44.3036 -98.6547 82° East 449 517 35,000  Level Minneapolis Center
Mon 06:22:30 PM 44.3200 -98.4817 82° East 452 520 35,000  Level Minneapolis Center
Mon 06:23:32 PM 44.3383 -98.2989 82° East 451 519 35,000  Level Minneapolis Center
Mon 06:24:34 PM 44.3547 -98.1258 82° East 451 519 35,000  Level Minneapolis Center
Mon 06:25:36 PM 44.3697 -97.9547 83° East 448 516 35,000  Level Minneapolis Center
Mon 06:26:38 PM 44.3856 -97.7828 83° East 447 514 35,000  Level Minneapolis Center
Mon 06:27:40 PM 44.4039 -97.5769 83° East 446 513 35,000  Level Minneapolis Center
Mon 06:28:42 PM 44.4186 -97.4042 83° East 448 516 35,000  Level Minneapolis Center
Mon 06:29:44 PM 44.4339 -97.2331 83° East 445 512 35,000  Level Minneapolis Center
Mon 06:30:46 PM 44.4486 -97.0606 83° East 446 513 35,000  Level Minneapolis Center
Mon 06:31:48 PM 44.4625 -96.8889 83° East 445 512 35,000  Level Minneapolis Center
Mon 06:32:50 PM 44.4769 -96.7172 83° East 442 509 35,000  Level Minneapolis Center
Mon 06:34:04 PM 44.4914 -96.5450 83° East 444 511 35,000  Level Minneapolis Center
Mon 06:35:06 PM 44.5108 -96.3014 84° East 445 512 35,000  Level Minneapolis Center
Mon 06:36:08 PM 44.5244 -96.1275 84° East 444 511 35,000  Level Minneapolis Center
Mon 06:37:10 PM 44.5372 -95.9558 84° East 441 507 35,000  Level Minneapolis Center
Mon 06:38:12 PM 44.5506 -95.7819 84° East 445 512 35,000  Level Minneapolis Center
Mon 06:39:14 PM 44.5622 -95.6103 84° East 443 510 35,000 -726 Level Minneapolis Center
Mon 06:40:16 PM 44.5736 -95.4406 85° East 439 505 33,500 -1,887 Descending Minneapolis Center
Mon 06:41:18 PM 44.5858 -95.2694 84° East 440 506 31,100 -3,000 Descending Minneapolis Center
Mon 06:42:20 PM 44.6014 -95.0608 84° East 447 514 27,300 -3,290 Descending Minneapolis Center
Mon 06:43:22 PM 44.6117 -94.8881 85° East 447 514 24,300 -2,855 Descending Minneapolis Center
Mon 06:44:24 PM 44.6231 -94.7239 84° East 432 497 21,400 -2,806 Descending Minneapolis Center
Mon 06:45:26 PM 44.6328 -94.5636 85° East 413 475 18,500 -2,661 Descending Minneapolis Center
Mon 06:46:28 PM 44.6372 -94.4047 88° East 406 467 15,900 -2,613 Descending Minneapolis Center
Mon 06:47:30 PM 44.6444 -94.2531 86° East 392 451 13,100 -2,371 Descending Minneapolis Center
Mon 06:48:32 PM 44.6761 -94.1153 72° East 373 429 11,000 -1,016 Descending Minneapolis Center
Mon 06:49:34 PM 44.7028 -93.9483 77° East 368 423 11,000  Level Minneapolis Center
Mon 06:50:36 PM 44.7431 -93.8150 67° East 371 427 11,000  Level Minneapolis Center
Mon 06:51:38 PM 44.7822 -93.6817 67° East 369 425 11,000 -242 Level Minneapolis Center
Mon 06:52:40 PM 44.8206 -93.5489 68° East 363 418 10,500 -532 Descending Minneapolis Center
Mon 06:53:42 PM 44.8539 -93.4342 68° East 317 365 9,900 -1,113 Descending Minneapolis Center
Mon 06:54:44 PM 44.8494 -93.3272 93° East 292 336 8,200 -1,645 Descending Minneapolis Center
Mon 06:55:46 PM 44.7647 -93.3119 173° South 262 302 6,500 -1,355 Descending Minneapolis Center
Mon 06:56:48 PM 44.6964 -93.3150 182° South 254 292 5,400 -926 Descending Minneapolis Center
Mon 06:58:02 PM 44.6750 -93.2472 114° Southeast 215 247 4,400 -1,015 Descending Minneapolis Center
Mon 06:59:04 PM 44.7189 -93.1983 38° Northeast 193 222 3,100 -912 Descending Minneapolis Center
Mon 07:00:07 PM 44.7769 -93.2136 349° North 187 215 2,500 -672 Descending Minneapolis Center
Mon 07:01:09 PM 44.8214 -93.2250 350° North 165 190 1,700 -774 Descending Minneapolis Center
Mon 07:03:00 PM 44.8667 -93.2167 90° East  Level FlightAware Approximate

Login

Don't have an account? Register now (free) for customized features, flight alerts, and more!